createdAt,value
2023-03-26T00:00:15.439Z,7.47
2023-03-26T00:02:48.216Z,7.46
2023-03-26T00:05:22.114Z,7.42
2023-03-26T00:07:54.946Z,7.45
2023-03-26T00:10:27.894Z,7.46
2023-03-26T00:13:00.358Z,7.45
2023-03-26T00:15:34.458Z,7.45
2023-03-26T00:18:09.743Z,7.42
2023-03-26T00:20:42.704Z,7.38
2023-03-26T00:23:15.891Z,7.33
2023-03-26T00:25:51.329Z,7.36
2023-03-26T00:28:24.392Z,7.36
2023-03-26T00:31:19.094Z,7.35
2023-03-26T00:33:54.687Z,7.29
2023-03-26T00:36:28.830Z,7.28
2023-03-26T00:39:01.641Z,7.30
2023-03-26T00:41:37.502Z,7.26
2023-03-26T00:44:10.421Z,7.25
2023-03-26T00:46:43.568Z,7.22
2023-03-26T00:49:18.099Z,7.22
2023-03-26T00:51:50.804Z,7.25
2023-03-26T00:54:23.377Z,7.25
2023-03-26T00:56:56.586Z,7.24
2023-03-26T00:59:32.360Z,7.23
2023-03-26T01:02:06.130Z,7.22
2023-03-26T01:04:43.059Z,7.20
2023-03-26T01:07:22.382Z,7.19
2023-03-26T01:09:55.799Z,7.20
2023-03-26T01:12:33.658Z,7.22
2023-03-26T01:15:08.654Z,7.19
2023-03-26T01:17:43.472Z,7.21
2023-03-26T01:20:27.107Z,7.20
2023-03-26T01:23:05.739Z,7.20
2023-03-26T01:25:47.297Z,7.16
2023-03-26T01:28:22.208Z,7.19
2023-03-26T01:31:10.350Z,7.19
2023-03-26T01:34:06.067Z,7.13
2023-03-26T01:36:47.126Z,7.09
2023-03-26T01:39:32.148Z,6.99
2023-03-26T01:42:09.567Z,6.99
2023-03-26T01:44:49.307Z,6.95
2023-03-26T01:47:22.838Z,6.90
2023-03-26T01:49:56.194Z,6.94
2023-03-26T01:52:29.291Z,6.93
2023-03-26T01:55:03.478Z,6.95
2023-03-26T01:57:46.219Z,6.95
2023-03-26T02:00:29.696Z,6.94
2023-03-26T02:03:23.100Z,6.98
2023-03-26T02:06:01.126Z,6.96
2023-03-26T02:08:59.990Z,6.98
2023-03-26T02:11:35.959Z,7.02
2023-03-26T02:14:11.085Z,7.05
2023-03-26T02:16:47.259Z,7.02
2023-03-26T02:19:22.201Z,7.03
2023-03-26T02:22:00.090Z,7.05
2023-03-26T02:24:33.773Z,7.01
2023-03-26T02:27:08.086Z,7.02
2023-03-26T02:29:43.094Z,6.98
2023-03-26T02:32:16.083Z,6.95
2023-03-26T02:34:48.732Z,6.95
2023-03-26T02:37:21.562Z,6.91
2023-03-26T02:39:56.834Z,6.87
2023-03-26T02:42:34.643Z,6.90
2023-03-26T02:45:08.773Z,6.91
2023-03-26T02:48:04.261Z,6.91
2023-03-26T02:50:57.233Z,6.89
2023-03-26T02:53:47.861Z,6.90
2023-03-26T02:56:58.857Z,6.89
2023-03-26T02:59:53.111Z,6.89
2023-03-26T03:02:48.537Z,6.90
2023-03-26T03:05:38.667Z,6.87
2023-03-26T03:08:32.183Z,6.84
2023-03-26T03:11:30.131Z,6.87
2023-03-26T03:14:02.759Z,6.91
2023-03-26T03:16:36.772Z,6.92
2023-03-26T03:19:14.155Z,6.89
2023-03-26T03:21:46.854Z,6.88
2023-03-26T03:24:20.906Z,6.86
2023-03-26T03:26:57.114Z,6.91
2023-03-26T03:29:41.750Z,6.94
2023-03-26T03:32:52.988Z,6.97
2023-03-26T03:35:27.989Z,6.93
2023-03-26T03:38:03.180Z,6.94
2023-03-26T03:40:40.815Z,6.94
2023-03-26T03:43:13.668Z,6.89
2023-03-26T03:45:56.946Z,6.95
2023-03-26T03:49:01.152Z,6.95
2023-03-26T03:51:38.068Z,7.00
2023-03-26T03:54:18.888Z,6.99
2023-03-26T03:56:51.778Z,7.02
2023-03-26T03:59:47.361Z,6.98
2023-03-26T04:02:26.724Z,6.96
2023-03-26T04:05:02.923Z,6.94
2023-03-26T04:07:35.735Z,6.90
2023-03-26T04:10:14.784Z,6.86
2023-03-26T04:13:06.089Z,6.86
2023-03-26T04:16:12.283Z,6.79
2023-03-26T04:18:46.213Z,6.85
2023-03-26T04:21:20.444Z,6.87
2023-03-26T04:23:56.051Z,6.90
2023-03-26T04:26:50.375Z,6.90
2023-03-26T04:29:28.292Z,6.88
2023-03-26T04:32:07.507Z,6.92
2023-03-26T04:34:40.195Z,6.94
2023-03-26T04:37:23.417Z,6.91
2023-03-26T04:40:09.830Z,6.87
2023-03-26T04:42:58.697Z,6.85
2023-03-26T04:45:52.667Z,6.82
2023-03-26T04:48:26.145Z,6.79
2023-03-26T04:50:59.571Z,6.74
2023-03-26T04:53:32.422Z,6.74
2023-03-26T04:56:31.030Z,6.71
2023-03-26T04:59:35.335Z,6.74
2023-03-26T05:02:13.319Z,6.75
2023-03-26T05:04:57.505Z,6.79
2023-03-26T05:07:33.524Z,6.76
2023-03-26T05:10:04.876Z,6.79
2023-03-26T05:12:41.273Z,6.78
2023-03-26T05:15:19.592Z,6.80
2023-03-26T05:18:14.418Z,6.83
2023-03-26T05:20:49.306Z,6.83
2023-03-26T05:23:22.135Z,6.86
2023-03-26T05:26:15.131Z,6.85
2023-03-26T05:28:47.947Z,6.85
2023-03-26T05:31:31.822Z,6.94
2023-03-26T05:34:07.118Z,6.99
2023-03-26T05:36:40.173Z,7.01
2023-03-26T05:39:41.915Z,7.05
2023-03-26T05:42:23.198Z,7.14
2023-03-26T05:45:12.087Z,7.17
2023-03-26T05:47:45.093Z,7.23
2023-03-26T05:50:18.150Z,7.22
2023-03-26T05:52:50.973Z,7.30
2023-03-26T05:55:42.777Z,7.33
2023-03-26T05:58:42.494Z,7.39
2023-03-26T06:01:39.200Z,7.36
2023-03-26T06:04:30.228Z,7.39
2023-03-26T06:07:18.467Z,7.34
2023-03-26T06:09:59.178Z,7.38
2023-03-26T06:12:31.786Z,7.40
2023-03-26T06:15:06.504Z,7.36
2023-03-26T06:18:05.640Z,7.35
2023-03-26T06:20:54.271Z,7.34
2023-03-26T06:23:35.203Z,7.37
2023-03-26T06:26:15.749Z,7.45
2023-03-26T06:29:05.506Z,7.63
2023-03-26T06:31:46.299Z,7.79
2023-03-26T06:34:25.165Z,7.84
2023-03-26T06:36:57.913Z,7.88
2023-03-26T06:39:30.809Z,8.08
2023-03-26T06:43:06.873Z,8.36
2023-03-26T06:45:55.520Z,8.69
2023-03-26T06:48:43.686Z,8.65
2023-03-26T06:51:27.308Z,8.69
2023-03-26T06:54:15.106Z,8.77
2023-03-26T06:57:00.320Z,8.62
2023-03-26T06:59:51.716Z,8.62
2023-03-26T07:02:53.680Z,8.43
2023-03-26T07:05:45.907Z,8.42
2023-03-26T07:08:55.819Z,8.36
2023-03-26T07:11:39.298Z,8.36
2023-03-26T07:14:33.071Z,8.40
2023-03-26T07:17:34.957Z,8.67
2023-03-26T07:20:19.706Z,8.91
2023-03-26T07:22:54.968Z,8.90
2023-03-26T07:25:44.928Z,9.27
2023-03-26T07:28:32.276Z,9.56
2023-03-26T07:31:18.420Z,9.77
2023-03-26T07:34:04.396Z,9.89
2023-03-26T07:37:05.362Z,10.24
2023-03-26T07:40:13.693Z,10.31
2023-03-26T07:43:17.936Z,10.25
2023-03-26T07:46:00.336Z,10.27
2023-03-26T07:48:55.365Z,10.65
2023-03-26T07:51:47.165Z,10.75
2023-03-26T07:54:30.526Z,10.72
2023-03-26T07:57:31.162Z,10.74
2023-03-26T08:00:32.477Z,10.94
2023-03-26T08:03:34.616Z,10.87
2023-03-26T08:06:28.666Z,10.54
2023-03-26T08:09:21.164Z,10.61
2023-03-26T08:12:31.765Z,10.67
2023-03-26T08:15:12.678Z,10.81
2023-03-26T08:17:50.954Z,10.82
2023-03-26T08:20:34.583Z,10.60
2023-03-26T08:23:15.893Z,10.64
2023-03-26T08:26:02.742Z,10.71
2023-03-26T08:28:49.654Z,10.76
2023-03-26T08:31:33.238Z,10.74
2023-03-26T08:34:06.617Z,10.76
2023-03-26T08:36:37.312Z,10.71
2023-03-26T08:39:10.585Z,10.42
2023-03-26T08:42:14.133Z,10.28
2023-03-26T08:45:23.262Z,10.37
2023-03-26T08:48:17.960Z,10.65
2023-03-26T08:51:29.034Z,10.98
2023-03-26T08:54:35.623Z,11.49
2023-03-26T08:57:41.873Z,11.53
2023-03-26T09:01:08.903Z,11.62
2023-03-26T09:04:12.877Z,11.67
2023-03-26T09:07:14.591Z,11.44
2023-03-26T09:10:18.816Z,11.17
2023-03-26T09:13:38.859Z,11.27
2023-03-26T09:16:40.791Z,11.49
2023-03-26T09:19:49.168Z,11.34
2023-03-26T09:22:52.617Z,11.25
2023-03-26T09:25:58.487Z,11.21
2023-03-26T09:32:32.000Z,11.54
2023-03-26T09:35:41.844Z,11.58
2023-03-26T09:38:30.518Z,11.45
2023-03-26T09:41:11.407Z,11.46
2023-03-26T09:44:17.674Z,11.50
2023-03-26T09:47:03.541Z,11.69
2023-03-26T09:49:47.261Z,11.95
2023-03-26T09:52:50.785Z,12.34
2023-03-26T09:55:57.795Z,12.50
2023-03-26T09:58:59.361Z,12.62
2023-03-26T10:01:55.590Z,12.19
2023-03-26T10:04:53.880Z,12.34
2023-03-26T10:21:25.621Z,12.74
2023-03-26T10:24:23.258Z,12.81
2023-03-26T10:27:26.789Z,12.96
2023-03-26T10:30:30.068Z,12.85
2023-03-26T10:33:15.945Z,13.08
2023-03-26T10:36:02.072Z,13.01
2023-03-26T10:38:52.379Z,12.64
2023-03-26T10:41:37.427Z,12.56
2023-03-26T10:44:35.562Z,12.47
2023-03-26T10:47:36.791Z,12.37
2023-03-26T10:50:34.335Z,12.49
2023-03-26T10:53:15.181Z,12.40
2023-03-26T10:55:54.063Z,12.23
2023-03-26T10:58:29.685Z,12.08
2023-03-26T11:01:34.685Z,12.00
2023-03-26T11:04:35.416Z,12.07
2023-03-26T11:07:19.925Z,12.07
2023-03-26T11:10:02.997Z,12.08
2023-03-26T11:12:43.379Z,12.02
2023-03-26T11:15:26.535Z,12.23
2023-03-26T11:18:10.655Z,12.59
2023-03-26T11:20:49.150Z,12.74
2023-03-26T11:23:36.073Z,12.45
2023-03-26T11:26:17.446Z,12.18
2023-03-26T11:29:32.271Z,12.21
2023-03-26T11:32:11.913Z,12.09
2023-03-26T11:34:50.752Z,12.14
2023-03-26T11:37:31.075Z,12.23
2023-03-26T11:40:12.189Z,12.35
2023-03-26T11:42:46.657Z,12.35
2023-03-26T11:45:24.571Z,12.32
2023-03-26T11:48:05.368Z,12.27
2023-03-26T11:50:42.443Z,12.10
2023-03-26T11:53:21.775Z,11.91
2023-03-26T11:56:01.511Z,11.73
2023-03-26T11:58:40.758Z,11.58
2023-03-26T12:01:19.675Z,11.72
2023-03-26T12:04:05.667Z,12.00
2023-03-26T12:06:38.853Z,12.24
2023-03-26T12:09:20.950Z,12.39
2023-03-26T12:12:01.973Z,12.67
2023-03-26T12:14:38.042Z,12.84
2023-03-26T12:17:15.029Z,13.02
2023-03-26T12:19:50.782Z,13.16
2023-03-26T12:22:37.778Z,12.89
2023-03-26T12:25:23.189Z,12.74
2023-03-26T12:28:03.542Z,12.99
2023-03-26T12:30:37.827Z,13.10
2023-03-26T12:33:18.653Z,13.15
2023-03-26T12:35:52.665Z,13.24
2023-03-26T12:38:33.820Z,12.89
2023-03-26T12:43:40.325Z,12.85
2023-03-26T12:44:52.753Z,12.84
2023-03-26T12:47:59.993Z,12.85
2023-03-26T12:50:18.840Z,12.69
2023-03-26T12:53:39.960Z,12.81
2023-03-26T12:56:22.376Z,13.01
2023-03-26T12:59:15.153Z,13.02
2023-03-26T13:01:57.481Z,12.99
2023-03-26T13:05:02.260Z,12.90
2023-03-26T13:07:51.601Z,13.20
2023-03-26T13:10:38.776Z,13.33
2023-03-26T13:13:38.272Z,13.20
2023-03-26T13:16:15.777Z,12.98
2023-03-26T13:18:55.155Z,12.85
2023-03-26T13:21:40.558Z,12.77
2023-03-26T13:24:20.066Z,12.83
2023-03-26T13:27:07.437Z,12.72
2023-03-26T13:29:56.929Z,12.63
2023-03-26T13:32:41.612Z,12.56
2023-03-26T13:35:26.118Z,12.42
2023-03-26T13:38:07.079Z,12.44
2023-03-26T13:40:51.449Z,12.68
2023-03-26T13:43:55.258Z,12.71
2023-03-26T13:46:36.857Z,12.69
2023-03-26T13:49:16.003Z,12.65
2023-03-26T13:51:55.702Z,12.50
2023-03-26T13:54:34.434Z,12.67
2023-03-26T13:57:14.429Z,12.97
2023-03-26T13:59:52.567Z,13.08
2023-03-26T14:02:32.506Z,13.23
2023-03-26T14:05:09.752Z,13.24
2023-03-26T14:07:48.358Z,13.22
2023-03-26T14:10:25.547Z,13.28
2023-03-26T14:13:04.654Z,13.27
2023-03-26T14:15:43.369Z,13.32
2023-03-26T14:18:31.355Z,13.42
2023-03-26T14:21:34.606Z,13.61
2023-03-26T14:24:46.175Z,13.62
2023-03-26T14:27:34.446Z,13.60
2023-03-26T14:30:36.910Z,13.62
2023-03-26T14:33:28.225Z,13.57
2023-03-26T14:36:13.954Z,13.38
2023-03-26T14:39:12.729Z,13.38
2023-03-26T14:41:52.555Z,13.31
2023-03-26T14:45:08.688Z,13.05
2023-03-26T14:47:48.184Z,13.03
2023-03-26T14:50:46.993Z,12.95
2023-03-26T14:53:28.011Z,12.90
2023-03-26T14:56:23.715Z,12.74
2023-03-26T14:59:34.361Z,12.58
2023-03-26T15:02:54.175Z,12.46
2023-03-26T15:05:58.065Z,12.33
2023-03-26T15:09:09.531Z,12.27
2023-03-26T15:11:55.342Z,12.17
2023-03-26T15:15:18.107Z,12.05
2023-03-26T15:18:27.869Z,11.97
2023-03-26T15:21:30.292Z,11.91
2023-03-26T15:24:34.767Z,11.89
2023-03-26T15:27:58.570Z,11.91
2023-03-26T15:31:02.098Z,11.84
2023-03-26T15:34:03.355Z,11.87
2023-03-26T15:37:29.466Z,11.82
2023-03-26T15:40:50.935Z,11.80
2023-03-26T15:43:35.075Z,11.88
2023-03-26T15:46:34.411Z,11.86
2023-03-26T15:49:18.885Z,11.93
2023-03-26T15:52:07.329Z,11.98
2023-03-26T15:54:59.480Z,12.00
2023-03-26T15:57:44.339Z,12.05
2023-03-26T16:00:29.451Z,12.08
2023-03-26T16:03:28.384Z,12.11
2023-03-26T16:06:24.278Z,12.09
2023-03-26T16:09:15.886Z,12.08
2023-03-26T16:11:58.761Z,12.11
2023-03-26T16:14:53.882Z,12.08
2023-03-26T16:17:28.931Z,12.03
2023-03-26T16:20:23.761Z,11.95
2023-03-26T16:23:04.780Z,11.90
2023-03-26T16:26:00.524Z,11.86
2023-03-26T16:28:37.751Z,11.83
2023-03-26T16:31:39.461Z,11.81
2023-03-26T16:34:41.883Z,11.77
2023-03-26T16:37:44.619Z,11.79
2023-03-26T16:40:38.494Z,11.74
2023-03-26T16:43:42.915Z,11.69
2023-03-26T16:46:28.511Z,11.60
2023-03-26T16:49:09.767Z,11.54
2023-03-26T16:51:59.719Z,11.53
2023-03-26T16:54:43.912Z,11.51
2023-03-26T16:57:27.852Z,11.49
2023-03-26T17:00:24.692Z,11.47
2023-03-26T17:03:06.767Z,11.46
2023-03-26T17:05:45.443Z,11.44
2023-03-26T17:08:36.227Z,11.38
2023-03-26T17:11:21.030Z,11.27
2023-03-26T17:14:05.503Z,11.24
2023-03-26T17:16:44.945Z,11.17
2023-03-26T17:19:30.521Z,11.13
2023-03-26T17:22:07.937Z,11.05
2023-03-26T17:24:49.331Z,10.93
2023-03-26T17:27:53.880Z,10.84
2023-03-26T17:30:54.272Z,10.71
2023-03-26T17:33:35.116Z,10.66
2023-03-26T17:36:42.286Z,10.56
2023-03-26T17:40:13.369Z,10.33
2023-03-26T17:43:07.909Z,10.20
2023-03-26T17:45:45.504Z,10.11
2023-03-26T17:48:48.051Z,10.08
2023-03-26T17:51:42.018Z,10.00
2023-03-26T17:54:29.833Z,9.86
2023-03-26T17:57:10.195Z,9.59
2023-03-26T17:59:45.527Z,9.30
2023-03-26T18:02:25.223Z,9.18
2023-03-26T18:05:03.395Z,9.14
2023-03-26T18:08:11.456Z,8.94
2023-03-26T18:11:16.634Z,8.84
2023-03-26T18:14:40.126Z,8.86
2023-03-26T18:17:20.446Z,8.80
2023-03-26T18:20:06.988Z,8.75
2023-03-26T18:22:38.913Z,8.65
2023-03-26T18:25:29.706Z,8.52
2023-03-26T18:28:17.689Z,8.45
2023-03-26T18:30:56.913Z,8.40
2023-03-26T18:33:48.518Z,8.40
2023-03-26T18:36:29.244Z,8.38
2023-03-26T18:39:06.226Z,8.40
2023-03-26T18:41:44.339Z,8.39
2023-03-26T18:44:22.116Z,8.38
2023-03-26T18:46:56.876Z,8.35
2023-03-26T18:49:31.046Z,8.33
2023-03-26T18:52:03.674Z,8.23
2023-03-26T18:54:38.596Z,8.03
2023-03-26T18:57:22.087Z,7.86
2023-03-26T18:59:57.015Z,7.76
2023-03-26T19:02:30.433Z,7.74
2023-03-26T19:05:03.910Z,7.80
2023-03-26T19:07:38.472Z,7.80
2023-03-26T19:10:25.651Z,7.79
2023-03-26T19:13:03.352Z,7.74
2023-03-26T19:15:38.915Z,7.69
2023-03-26T19:18:18.390Z,7.64
2023-03-26T19:20:54.602Z,7.58
2023-03-26T19:23:32.740Z,7.62
2023-03-26T19:26:10.335Z,7.67
2023-03-26T19:28:49.424Z,7.68
2023-03-26T19:31:28.421Z,7.64
2023-03-26T19:34:03.444Z,7.56
2023-03-26T19:36:40.095Z,7.55
2023-03-26T19:39:27.294Z,7.59
2023-03-26T19:42:11.913Z,7.65
2023-03-26T19:44:48.255Z,7.68
2023-03-26T19:47:35.342Z,7.62
2023-03-26T19:50:26.622Z,7.58
2023-03-26T19:53:19.194Z,7.54
2023-03-26T19:55:59.612Z,7.52
2023-03-26T19:58:33.399Z,7.46
2023-03-26T20:01:04.112Z,7.46
2023-03-26T20:03:42.164Z,7.45
2023-03-26T20:06:17.537Z,7.50
2023-03-26T20:08:51.922Z,7.55
2023-03-26T20:11:30.893Z,7.60
2023-03-26T20:14:09.227Z,7.63
2023-03-26T20:16:56.079Z,7.65
2023-03-26T20:19:33.054Z,7.67
2023-03-26T20:22:07.317Z,7.64
2023-03-26T20:24:41.822Z,7.65
2023-03-26T20:27:15.259Z,7.61
2023-03-26T20:29:48.268Z,7.61
2023-03-26T20:32:26.469Z,7.64
2023-03-26T20:34:59.991Z,7.70
2023-03-26T20:37:32.488Z,7.73
2023-03-26T20:40:08.393Z,7.71
2023-03-26T20:42:41.833Z,7.72
2023-03-26T20:45:18.383Z,7.76
2023-03-26T20:47:52.416Z,7.73
2023-03-26T20:50:27.266Z,7.75
2023-03-26T20:53:01.120Z,7.77
2023-03-26T20:55:34.062Z,7.78
2023-03-26T20:58:06.467Z,7.80
2023-03-26T21:00:40.056Z,7.77
2023-03-26T21:03:13.121Z,7.72
2023-03-26T21:05:48.914Z,7.70
2023-03-26T21:08:30.459Z,7.70
2023-03-26T21:11:07.231Z,7.66
2023-03-26T21:13:44.776Z,7.67
2023-03-26T21:16:19.322Z,7.67
2023-03-26T21:18:53.301Z,7.66
2023-03-26T21:21:46.580Z,7.70
2023-03-26T21:24:33.369Z,7.71
2023-03-26T21:27:14.452Z,7.72
2023-03-26T21:29:48.010Z,7.73
2023-03-26T21:32:21.821Z,7.75
2023-03-26T21:34:59.062Z,7.67
2023-03-26T21:37:33.572Z,7.62
2023-03-26T21:40:15.426Z,7.65
2023-03-26T21:42:50.616Z,7.64
2023-03-26T21:45:25.034Z,7.64
2023-03-26T21:47:58.802Z,7.58
2023-03-26T21:50:32.715Z,7.55
2023-03-26T21:53:06.384Z,7.48
2023-03-26T21:55:45.318Z,7.42
2023-03-26T21:58:30.612Z,7.32
2023-03-26T22:01:18.235Z,7.26
2023-03-26T22:04:14.613Z,7.25
2023-03-26T22:06:52.624Z,7.26
2023-03-26T22:09:33.925Z,7.30
2023-03-26T22:12:10.804Z,7.35
2023-03-26T22:14:43.488Z,7.39
2023-03-26T22:17:16.150Z,7.41
2023-03-26T22:19:49.048Z,7.43
2023-03-26T22:22:22.516Z,7.45
2023-03-26T22:24:55.528Z,7.46
2023-03-26T22:27:28.411Z,7.50
2023-03-26T22:30:00.973Z,7.49
2023-03-26T22:32:35.279Z,7.44
2023-03-26T22:35:09.345Z,7.39
2023-03-26T22:37:41.979Z,7.38
2023-03-26T22:40:15.086Z,7.36
2023-03-26T22:42:50.458Z,7.33
2023-03-26T22:45:24.005Z,7.32
2023-03-26T22:48:03.086Z,7.29
2023-03-26T22:50:37.226Z,7.21
2023-03-26T22:53:09.664Z,7.14
2023-03-26T22:55:42.466Z,7.07
2023-03-26T22:58:15.275Z,7.04
2023-03-26T23:00:50.605Z,6.99
2023-03-26T23:03:34.866Z,6.94
2023-03-26T23:06:10.825Z,6.84
2023-03-26T23:08:44.085Z,6.82
2023-03-26T23:11:19.309Z,6.81
2023-03-26T23:13:52.526Z,6.81
2023-03-26T23:16:25.390Z,6.82
2023-03-26T23:18:58.264Z,6.83
2023-03-26T23:21:30.786Z,6.89
2023-03-26T23:24:11.217Z,6.93
2023-03-26T23:26:50.529Z,6.92
2023-03-26T23:29:24.016Z,6.92
2023-03-26T23:31:56.708Z,6.86
2023-03-26T23:34:29.400Z,6.78
2023-03-26T23:37:02.489Z,6.76
2023-03-26T23:39:35.208Z,6.75
2023-03-26T23:42:07.926Z,6.77
2023-03-26T23:44:40.787Z,6.81
2023-03-26T23:47:17.081Z,6.85
2023-03-26T23:49:49.685Z,6.89
2023-03-26T23:52:22.940Z,6.80
2023-03-26T23:54:55.578Z,6.81
2023-03-26T23:57:28.218Z,6.71
